Etusivu
METAR-TAF:

METAR-TAF

Lentoasemat :

Ames, Iowa, Yhdysvallat

Leveyspiiri: 41-59-26N, Pituuspiiri: 093-37-08W, korkeus merenpinnasta: 288 m

Tämänhetkinen sää

Tämä raportti tehtiin 29 minuuttia sitten, kello 18.53 UTC
Tuuli 11 kn etelästä/lounaasta
Lämpötila -10°C
Kosteus 56%
Ilmanpaine 1032 hPa
Näkyvyys: 16.1 km
selkeää

METAR: KAMW 121853Z AUTO 20011KT 10SM CLR M10/M17 A3047 RMK AO2 SLP336 T11001172

Aika: 13:22 (19:22 UTC)


TAF: puuttuu

Säähavainnot ja -ennusteet yli 4000 lentoasemalta (METAR- ja TAF-raportit).

Käytössä olevat sääasemat on merkitty karttaan keltaisilla ja punaisilla pisteillä.

Aseta hiiri pisteen päälle nähdäksesi sääaseman nimen.

Klikkaa sitten nähdäksesi säähavainnot ja -ennusteet.

Kartan vaihtaminen: klikkaa mustalla rastilla varustettuja vihreitä pisteitä, niin voit zoomata sisään; viivalla varustettua vihreää pistettä, niin voit zoomata ulos tai vihreitä nuolia, niin pääset viereisille kartoille.


METAR-TAF: